CDT,Max TemperatureF,Mean TemperatureF,Min TemperatureF,Max Dew PointF,MeanDew PointF,Min DewpointF,Max Humidity, Mean Humidity, Min Humidity, Max Sea Level PressureIn, Mean Sea Level PressureIn, Min Sea Level PressureIn, Max VisibilityMiles, Mean VisibilityMiles, Min VisibilityMiles, Max Wind SpeedMPH, Mean Wind SpeedMPH, Max Gust SpeedMPH,PrecipitationIn, CloudCover, Events, WindDirDegrees
2012-9-1,78,74,69,72,70,68,100,90,78,30.09,30.04,29.98,10.0,8.8,4.0,10,1,,0.00,4,Rain,111
2012-9-2,82,76,71,72,70,68,94,82,66,29.98,29.92,29.88,10.0,10.0,10.0,12,5,17,0.00,5,,93
2012-9-3,82,73,64,70,68,64,100,84,66,29.94,29.91,29.88,10.0,8.6,1.0,12,2,,0.00,0,,13
2012-9-4,82,73,64,72,68,64,100,85,58,29.93,29.88,29.85,10.0,7.9,1.2,12,2,18,0.00,1,Rain,4
2012-9-5,80,71,62,68,64,63,100,80,58,29.96,29.84,29.78,10.0,9.5,3.0,16,6,29,0.00,2,Rain,188
2012-9-6,78,68,59,70,63,55,100,79,47,29.95,29.91,29.84,10.0,8.6,1.0,8,4,,0.00,1,,308
2012-9-7,78,68,59,64,61,55,100,86,54,29.96,29.84,29.74,10.0,8.8,0.5,17,2,28,0.00,3,Fog-Rain,35
2012-9-8,68,62,55,57,53,48,100,73,52,29.89,29.85,29.78,10.0,9.8,5.0,16,6,28,0.00,5,Rain,323
2012-9-9,68,60,51,59,53,46,100,77,52,30.15,30.01,29.86,10.0,9.3,0.5,16,5,21,0.00,4,Fog-Rain,3
2012-9-10,75,60,44,54,47,41,100,70,31,30.24,30.18,30.12,10.0,9.1,1.0,7,1,,0.00,0,,165
2012-9-11,80,65,50,55,51,48,100,63,32,30.20,30.15,30.09,10.0,10.0,10.0,17,4,25,0.00,0,,192
2012-9-12,64,64,62,54,53,52,72,68,64,30.20,30.16,30.13,10.0,10.0,10.0,8,8,,0.00,0,,190
2012-9-13,71,,71,63,63,63,73,73,73,30.23,30.23,30.23,10.0,10.0,10.0,9,9,,0.00,3,,340
2012-9-14,69,58,48,54,48,34,100,74,28,30.34,30.31,30.29,10.0,9.4,0.2,9,1,,0.00,2,Fog,314
2012-9-15,73,58,44,52,47,41,100,74,31,30.32,30.25,30.15,10.0,9.9,5.0,9,1,,0.00,0,,19
2012-9-16,77,60,44,55,49,43,100,74,31,30.15,30.08,30.00,10.0,8.7,0.2,8,1,,0.00,1,Fog,278
2012-9-17,75,63,51,61,56,48,100,77,53,29.99,29.87,29.73,10.0,9.6,2.5,15,3,23,0.00,4,Rain,207
2012-9-18,60,56,51,55,43,32,94,61,39,30.03,29.87,29.73,10.0,9.6,5.0,22,10,30,0.00,7,Rain,328
2012-9-19,69,55,41,41,36,34,87,49,27,30.10,30.00,29.88,10.0,10.0,10.0,17,6,29,0.00,2,,195
2012-9-20,68,57,46,52,43,36,87,58,30,29.94,29.90,29.86,10.0,10.0,10.0,16,9,25,0.00,1,Rain,242
2012-9-21,64,54,44,54,46,36,100,78,34,29.94,29.89,29.78,10.0,9.9,7.0,12,2,18,0.00,4,Rain,319
2012-9-22,53,48,44,50,44,37,100,81,54,30.14,29.96,29.78,10.0,8.3,0.8,21,6,30,0.00,6,Rain,273
2012-9-23,55,46,37,41,36,32,100,60,44,30.26,30.21,30.14,10.0,9.7,4.0,14,6,21,0.00,3,,318
2012-9-24,68,52,35,37,33,28,100,52,23,30.23,30.10,29.94,10.0,9.9,5.0,16,6,24,0.00,0,,207
2012-9-25,73,62,51,61,48,36,94,65,47,29.95,29.89,29.85,10.0,10.0,7.0,14,6,21,0.00,3,,193
2012-9-26,66,58,51,63,54,45,100,82,55,30.17,30.02,29.88,10.0,7.1,0.2,13,4,18,0.00,3,Fog,360
2012-9-27,64,54,44,52,48,45,100,79,52,30.19,30.16,30.13,10.0,10.0,10.0,9,3,9,0.00,4,,341
2012-9-28,64,55,44,54,50,45,100,84,59,30.15,30.13,30.10,10.0,7.4,0.2,13,3,16,0.00,3,Fog,31
2012-9-29,68,54,41,54,45,37,100,78,35,30.12,30.05,29.97,10.0,6.9,0.2,9,2,,0.00,1,Fog,312
2012-9-30,64,50,37,50,44,37,100,81,42,29.99,29.96,29.93,10.0,7.0,0.2,15,3,22,0.00,2,Fog,18